createdAt,value
2019-05-14T00:04:47.084Z,46.30
2019-05-14T00:09:52.679Z,46.30
2019-05-14T00:14:58.965Z,46.30
2019-05-14T00:20:09.854Z,46.40
2019-05-14T00:25:14.855Z,46.30
2019-05-14T00:30:22.067Z,46.30
2019-05-14T00:35:28.025Z,46.30
2019-05-14T00:40:34.101Z,46.30
2019-05-14T00:45:41.814Z,46.40
2019-05-14T00:50:47.432Z,46.30
2019-05-14T00:55:53.221Z,46.40
2019-05-14T01:00:58.731Z,46.40
2019-05-14T01:06:04.574Z,46.30
2019-05-14T01:11:11.797Z,46.30
2019-05-14T01:16:18.162Z,46.40
2019-05-14T01:21:24.625Z,47.00
2019-05-14T01:26:31.055Z,46.40
2019-05-14T01:31:37.120Z,46.40
2019-05-14T01:36:43.408Z,46.40
2019-05-14T01:41:51.517Z,46.40
2019-05-14T01:46:56.783Z,46.40
2019-05-14T01:52:03.044Z,47.00
2019-05-14T01:57:11.289Z,46.40
2019-05-14T02:02:17.997Z,46.50
2019-05-14T02:07:23.524Z,46.40
2019-05-14T02:12:31.392Z,46.50
2019-05-14T02:17:35.936Z,46.30
2019-05-14T02:22:42.004Z,46.30
2019-05-14T02:27:47.688Z,46.10
2019-05-14T02:32:53.335Z,46.30
2019-05-14T02:37:59.737Z,46.20
2019-05-14T02:43:05.723Z,46.20
2019-05-14T02:48:11.322Z,46.20
2019-05-14T02:53:19.755Z,46.10
2019-05-14T02:58:25.666Z,46.10
2019-05-14T03:03:31.887Z,46.20
2019-05-14T03:08:39.082Z,46.10
2019-05-14T03:13:45.482Z,46.10
2019-05-14T03:18:51.577Z,46.10
2019-05-14T03:24:00.820Z,46.10
2019-05-14T03:29:09.186Z,46.10
2019-05-14T03:34:14.410Z,46.10
2019-05-14T03:39:20.282Z,46.00
2019-05-14T03:44:28.905Z,46.00
2019-05-14T03:49:33.713Z,46.00
2019-05-14T03:54:40.681Z,45.90
2019-05-14T03:59:49.942Z,45.90
2019-05-14T04:04:55.155Z,45.90
2019-05-14T04:10:01.489Z,45.90
2019-05-14T04:15:09.582Z,45.90
2019-05-14T04:20:14.353Z,45.90
2019-05-14T04:25:20.493Z,45.90
2019-05-14T04:30:28.863Z,45.90
2019-05-14T04:35:35.857Z,45.80
2019-05-14T04:40:41.583Z,45.70
2019-05-14T04:45:49.744Z,45.80
2019-05-14T04:51:00.334Z,45.70
2019-05-14T04:56:09.771Z,45.70
2019-05-14T05:01:15.182Z,45.70
2019-05-14T05:06:21.052Z,45.70
2019-05-14T05:11:29.108Z,45.70
2019-05-14T05:16:34.842Z,45.80
2019-05-14T05:21:40.892Z,45.80
2019-05-14T05:26:48.549Z,45.70
2019-05-14T05:31:54.487Z,45.70
2019-05-14T05:37:02.962Z,45.90
2019-05-14T05:42:09.239Z,45.90
2019-05-14T05:47:15.472Z,46.00
2019-05-14T05:52:22.084Z,45.90
2019-05-14T05:57:28.922Z,46.00
2019-05-14T06:02:34.552Z,45.90
2019-05-14T06:07:42.520Z,45.90
2019-05-14T06:12:49.202Z,45.90
2019-05-14T06:18:11.627Z,46.00
2019-05-14T06:23:03.193Z,46.10
2019-05-14T06:28:09.604Z,46.00
2019-05-14T06:33:16.340Z,46.00
2019-05-14T06:38:22.738Z,45.90
2019-05-14T06:43:29.341Z,46.00
2019-05-14T06:48:35.843Z,46.50
2019-05-14T06:53:41.702Z,46.00
2019-05-14T06:58:49.126Z,46.00
2019-05-14T07:03:57.962Z,46.00
2019-05-14T07:09:05.202Z,46.00
2019-05-14T07:14:11.931Z,46.00
2019-05-14T07:19:19.170Z,46.20
2019-05-14T07:24:25.293Z,46.00
2019-05-14T07:29:31.692Z,46.00
2019-05-14T07:34:38.807Z,46.00
2019-05-14T07:39:45.272Z,46.00
2019-05-14T07:44:51.382Z,46.00
2019-05-14T07:49:59.104Z,46.00
2019-05-14T07:55:05.512Z,46.00
2019-05-14T08:00:14.692Z,46.00
2019-05-14T08:05:20.902Z,46.00
2019-05-14T08:10:28.869Z,46.00
2019-05-14T08:15:35.204Z,46.00
2019-05-14T08:20:40.570Z,46.10
2019-05-14T08:25:48.103Z,45.10
2019-05-14T08:30:54.305Z,45.90
2019-05-14T08:36:00.436Z,45.90
2019-05-14T08:41:08.313Z,45.80
2019-05-14T08:46:14.494Z,45.60
2019-05-14T08:51:20.713Z,45.70
2019-05-14T08:56:28.122Z,45.50
2019-05-14T09:01:33.071Z,45.60
2019-05-14T09:06:38.773Z,36.10
2019-05-14T09:11:46.079Z,32.80
2019-05-14T09:16:51.619Z,31.80
2019-05-14T09:21:58.937Z,36.50
2019-05-14T09:27:05.575Z,40.30
2019-05-14T09:32:10.794Z,40.80
2019-05-14T09:37:19.021Z,42.30
2019-05-14T09:42:23.500Z,43.20
2019-05-14T09:47:29.155Z,43.70
2019-05-14T09:52:35.362Z,44.60
2019-05-14T09:57:40.783Z,44.90
2019-05-14T10:02:49.238Z,45.40
2019-05-14T10:07:53.662Z,46.50
2019-05-14T10:13:01.595Z,46.90
2019-05-14T10:18:11.065Z,46.60
2019-05-14T10:23:13.194Z,47.20
2019-05-14T10:28:19.302Z,46.60
2019-05-14T10:33:25.101Z,46.40
2019-05-14T10:38:30.727Z,46.70
2019-05-14T10:43:40.410Z,47.00
2019-05-14T10:48:46.373Z,46.30
2019-05-14T10:53:52.244Z,46.20
2019-05-14T10:58:58.382Z,46.20
2019-05-14T11:04:04.722Z,46.20
2019-05-14T11:09:10.963Z,46.20
2019-05-14T11:14:19.272Z,46.50
2019-05-14T11:19:24.812Z,46.50
2019-05-14T11:24:30.752Z,46.30
2019-05-14T11:29:38.536Z,44.90
2019-05-14T11:34:44.557Z,46.20
2019-05-14T11:39:50.412Z,46.10
2019-05-14T11:44:58.253Z,45.70
2019-05-14T11:50:03.993Z,45.60
2019-05-14T11:55:10.252Z,45.80
2019-05-14T12:00:16.262Z,45.90
2019-05-14T12:05:22.153Z,45.90
2019-05-14T12:10:29.265Z,45.70
2019-05-14T12:15:38.625Z,45.40
2019-05-14T12:20:43.833Z,44.90
2019-05-14T12:25:49.633Z,45.30
2019-05-14T12:30:58.334Z,45.60
2019-05-14T12:36:04.432Z,45.60
2019-05-14T12:41:10.962Z,45.50
2019-05-14T12:46:16.952Z,45.50
2019-05-14T12:51:22.952Z,45.50
2019-05-14T12:56:29.456Z,45.60
2019-05-14T13:01:35.916Z,45.50
2019-05-14T13:06:42.132Z,45.50
2019-05-14T13:11:47.976Z,45.30
2019-05-14T13:16:54.766Z,44.90
2019-05-14T13:22:13.095Z,45.40
2019-05-14T13:27:09.592Z,45.50
2019-05-14T13:32:16.222Z,45.50
2019-05-14T13:37:22.502Z,45.60
2019-05-14T13:42:29.569Z,45.50
2019-05-14T13:47:35.682Z,45.60
2019-05-14T13:52:58.303Z,45.60
2019-05-14T13:57:49.623Z,45.60
2019-05-14T14:02:55.784Z,45.70
2019-05-14T14:08:01.513Z,45.70
2019-05-14T14:13:11.085Z,45.40
2019-05-14T14:18:15.309Z,45.40
2019-05-14T14:23:26.848Z,45.60
2019-05-14T14:28:29.533Z,45.70
2019-05-14T14:33:38.924Z,45.60
2019-05-14T14:38:43.974Z,45.50
2019-05-14T14:43:53.863Z,45.50
2019-05-14T14:49:02.029Z,45.30
2019-05-14T14:54:10.904Z,45.30
2019-05-14T14:59:11.982Z,45.40
2019-05-14T15:04:19.424Z,45.40
2019-05-14T15:09:26.086Z,45.30
2019-05-14T15:14:31.793Z,45.30
2019-05-14T15:19:39.511Z,45.20
2019-05-14T15:24:44.832Z,45.00
2019-05-14T15:29:50.993Z,45.00
2019-05-14T15:34:59.423Z,45.10
2019-05-14T15:40:05.006Z,45.10
2019-05-14T15:45:11.862Z,45.10
2019-05-14T15:50:20.100Z,44.40
2019-05-14T15:55:28.888Z,45.10
2019-05-14T16:00:38.553Z,40.90
2019-05-14T16:05:44.712Z,41.40
2019-05-14T16:10:50.642Z,43.70
2019-05-14T16:15:56.872Z,44.20
2019-05-14T16:21:03.505Z,44.60
2019-05-14T16:26:09.392Z,44.80
2019-05-14T16:31:18.242Z,44.90
2019-05-14T16:36:23.901Z,45.00
2019-05-14T16:41:31.398Z,44.30
2019-05-14T16:46:38.447Z,43.80
2019-05-14T16:51:45.125Z,44.10
2019-05-14T16:56:51.386Z,44.20
2019-05-14T17:01:58.527Z,44.30
2019-05-14T17:07:04.792Z,44.30
2019-05-14T17:12:11.203Z,44.30
2019-05-14T17:17:17.202Z,44.20
2019-05-14T17:22:28.985Z,44.10
2019-05-14T17:27:31.445Z,44.20
2019-05-14T17:32:39.088Z,44.20
2019-05-14T17:37:48.181Z,44.20
2019-05-14T17:42:53.523Z,44.20
2019-05-14T17:48:00.344Z,44.20
2019-05-14T17:53:09.527Z,44.20
2019-05-14T17:58:14.822Z,44.20
2019-05-14T18:03:20.702Z,44.10
2019-05-14T18:08:30.003Z,44.10
2019-05-14T18:13:34.944Z,44.10
2019-05-14T18:18:40.641Z,44.20
2019-05-14T18:23:48.966Z,44.20
2019-05-14T18:28:53.881Z,44.20
2019-05-14T18:34:00.582Z,44.30
2019-05-14T18:39:09.268Z,44.30
2019-05-14T18:44:14.921Z,44.30
2019-05-14T18:49:21.521Z,44.30
2019-05-14T18:54:29.374Z,44.40
2019-05-14T18:59:39.143Z,44.50
2019-05-14T19:04:44.983Z,44.50
2019-05-14T19:09:51.882Z,44.50
2019-05-14T19:14:58.941Z,44.60
2019-05-14T19:20:05.202Z,44.60
2019-05-14T19:25:11.942Z,44.70
2019-05-14T19:30:19.183Z,44.80
2019-05-14T19:35:28.694Z,44.80
2019-05-14T19:40:34.738Z,44.80
2019-05-14T19:45:41.452Z,44.80
2019-05-14T19:50:49.079Z,44.70
2019-05-14T19:55:59.204Z,44.90
2019-05-14T20:01:04.252Z,44.80
2019-05-14T20:06:18.518Z,45.00
2019-05-14T20:11:43.392Z,45.10
2019-05-14T20:16:49.792Z,45.30
2019-05-14T20:21:55.863Z,45.40
2019-05-14T20:27:08.201Z,45.40
2019-05-14T20:32:10.552Z,45.40
2019-05-14T20:37:18.794Z,45.30
2019-05-14T20:42:24.521Z,45.30
2019-05-14T20:47:30.031Z,45.30
2019-05-14T20:52:37.452Z,45.40
2019-05-14T20:57:43.992Z,45.40
2019-05-14T21:02:50.133Z,45.40
2019-05-14T21:07:55.691Z,45.30
2019-05-14T21:13:02.007Z,45.30
2019-05-14T21:18:08.360Z,45.30
2019-05-14T21:23:19.192Z,45.30
2019-05-14T21:28:29.869Z,45.10
2019-05-14T21:33:33.752Z,45.20
2019-05-14T21:38:41.148Z,45.20
2019-05-14T21:43:49.177Z,45.10
2019-05-14T21:48:55.592Z,45.10
2019-05-14T21:54:01.844Z,45.10
2019-05-14T21:59:09.444Z,45.10
2019-05-14T22:04:18.446Z,45.20
2019-05-14T22:09:28.374Z,45.20
2019-05-14T22:14:33.323Z,45.20
2019-05-14T22:19:39.141Z,45.10
2019-05-14T22:24:46.286Z,45.20
2019-05-14T22:29:52.492Z,45.10
2019-05-14T22:34:58.550Z,45.10
2019-05-14T22:40:05.463Z,45.20
2019-05-14T22:45:12.182Z,45.10
2019-05-14T22:50:18.741Z,45.10
2019-05-14T22:55:24.473Z,45.10
2019-05-14T23:00:30.090Z,45.10
2019-05-14T23:05:35.971Z,45.10
2019-05-14T23:10:44.732Z,45.10
2019-05-14T23:15:51.181Z,45.10
2019-05-14T23:20:58.957Z,45.10
2019-05-14T23:26:04.694Z,45.10
2019-05-14T23:31:11.004Z,45.10
2019-05-14T23:36:21.122Z,45.10
2019-05-14T23:41:28.660Z,45.20
2019-05-14T23:46:38.193Z,45.20
2019-05-14T23:51:47.902Z,45.20
2019-05-14T23:56:53.912Z,45.00
